Max Planck — ELZY8 — position and weather

sailwx.info

Track history (hours):
 
Tides and Currents Weather Stations Pressure Air Temp Water Temp Dewpoint Dewpoint Depression Visibility Wind Speed Wind Dir Waves Ship Positions

Max Planck

Last reported at 2016-Dec-19 04:30 UTC. Time now 2017-Jan-19 08:39 UTC.
Position N 30°07' E 121°48'.
Warning: this ship's position is 31 days out of date.

Length 99.9 m; beam 16.2 m; draft 6.8 m.

Type: Ship (hazmat cat A). MMSI: 636017362.

Date/timePositionNaut miles runAvg speedWind from/ knotsBaromVisibWave heightAir tempDewpointWater temp
2016-Dec-19 04:30N 30°07' E 121°48'1010.9
2016-Dec-19 03:34N 29°58' E 121°52'3 0.6
2016-Dec-18 23:06N 29°56' E 121°54'0 0.0
2016-Dec-18 22:33N 29°56' E 121°54'0 0.0
2016-Dec-18 21:33N 29°56' E 121°54'0 0.0
2016-Dec-18 20:33N 29°56' E 121°54'0 0.0
2016-Dec-18 19:33N 29°56' E 121°54'0 0.0
2016-Dec-18 18:32N 29°56' E 121°54'0 0.0
2016-Dec-18 17:33N 29°56' E 121°54'0 0.0
2016-Dec-18 16:33N 29°56' E 121°54'0 0.0
2016-Dec-18 15:32N 29°56' E 121°54'0 0.0
2016-Dec-18 14:33N 29°56' E 121°54'0 0.0
2016-Dec-18 13:33N 29°56' E 121°54'0 0.0
2016-Dec-18 12:33N 29°56' E 121°54'0 0.0
2016-Dec-18 11:33N 29°56' E 121°54'0 0.0
2016-Dec-18 10:32N 29°56' E 121°54'0 0.0
2016-Dec-18 09:33N 29°56' E 121°54'0 0.0
2016-Dec-18 08:33N 29°56' E 121°54'0 0.0
2016-Dec-18 07:33N 29°56' E 121°54'0 0.0
2016-Dec-18 06:33N 29°56' E 121°54'0 0.0
2016-Dec-18 05:33N 29°56' E 121°54'2 2.2
2016-Dec-18 04:33N 29°57' E 121°52'10 7.5
2016-Dec-18 03:14N 30°06' E 121°48'7 9.0
2016-Dec-18 02:31N 30°13' E 121°47'6 5.6
2016-Dec-18 01:23N 30°19' E 121°44'0 0.1
2016-Dec-18 00:31N 30°19' E 121°44'0 0.0
2016-Dec-17 23:33N 30°19' E 121°44'0 0.0
2016-Dec-17 22:33N 30°19' E 121°44'0 0.1
2016-Dec-17 21:33N 30°19' E 121°44'0 0.0
2016-Dec-17 20:31N 30°19' E 121°44'0 0.0
2016-Dec-17 18:31N 30°19' E 121°44'0 0.0
2016-Dec-17 17:28N 30°19' E 121°44'  
2016-Dec-13 03:18N 35°03' E 139°39'811.1
2016-Dec-13 02:33N 35°09' E 139°45'1110.9
2016-Dec-13 01:33N 35°20' E 139°42'1110.7
2016-Dec-13 00:33N 35°29' E 139°50'10 0.4
2016-Dec-12 00:22N 35°31' E 140°02'1 1.8
2016-Dec-11 23:34N 35°31' E 140°00'1 0.9
2016-Dec-11 22:31N 35°30' E 139°60'0 0.0
2016-Dec-11 21:31N 35°30' E 139°60'0 0.0
2016-Dec-11 20:16N 35°30' E 139°60'0 0.0
2016-Dec-11 19:33N 35°30' E 139°60'0 0.0
2016-Dec-11 18:33N 35°30' E 139°60'0 0.0
2016-Dec-11 17:27N 35°30' E 139°60'0 0.0
2016-Dec-11 16:06N 35°30' E 139°60'0 0.2
2016-Dec-11 15:33N 35°30' E 139°60'3 2.8
2016-Dec-11 14:33N 35°30' E 139°56'1110.9
2016-Dec-11 13:33N 35°23' E 139°46'1110.6
2016-Dec-11 12:33N 35°13' E 139°47'1010.0
2016-Dec-11 11:31N 35°04' E 139°41'  
Track history (hours):
 
Tides and Currents Weather Stations Pressure Air Temp Water Temp Dewpoint Dewpoint Depression Visibility Wind Speed Wind Dir Waves Ship Positions

Max Planck

Last reported at 2016-Dec-19 04:30 UTC. Time now 2017-Jan-19 08:39 UTC.
Position N 30°07' E 121°48'.
Warning: this ship's position is 31 days out of date.

Length 99.9 m; beam 16.2 m; draft 6.8 m.

Type: Ship (hazmat cat A). MMSI: 636017362.

Date/timePositionNaut miles runAvg speedWind from/ knotsBaromVisibWave heightAir tempDewpointWater temp
2016-Dec-19 04:30N 30°07' E 121°48'1010.9
2016-Dec-19 03:34N 29°58' E 121°52'3 0.6
2016-Dec-18 23:06N 29°56' E 121°54'0 0.0
2016-Dec-18 22:33N 29°56' E 121°54'0 0.0
2016-Dec-18 21:33N 29°56' E 121°54'0 0.0
2016-Dec-18 20:33N 29°56' E 121°54'0 0.0
2016-Dec-18 19:33N 29°56' E 121°54'0 0.0
2016-Dec-18 18:32N 29°56' E 121°54'0 0.0
2016-Dec-18 17:33N 29°56' E 121°54'0 0.0
2016-Dec-18 16:33N 29°56' E 121°54'0 0.0
2016-Dec-18 15:32N 29°56' E 121°54'0 0.0
2016-Dec-18 14:33N 29°56' E 121°54'0 0.0
2016-Dec-18 13:33N 29°56' E 121°54'0 0.0
2016-Dec-18 12:33N 29°56' E 121°54'0 0.0
2016-Dec-18 11:33N 29°56' E 121°54'0 0.0
2016-Dec-18 10:32N 29°56' E 121°54'0 0.0
2016-Dec-18 09:33N 29°56' E 121°54'0 0.0
2016-Dec-18 08:33N 29°56' E 121°54'0 0.0
2016-Dec-18 07:33N 29°56' E 121°54'0 0.0
2016-Dec-18 06:33N 29°56' E 121°54'0 0.0
2016-Dec-18 05:33N 29°56' E 121°54'2 2.2
2016-Dec-18 04:33N 29°57' E 121°52'10 7.5
2016-Dec-18 03:14N 30°06' E 121°48'7 9.0
2016-Dec-18 02:31N 30°13' E 121°47'6 5.6
2016-Dec-18 01:23N 30°19' E 121°44'0 0.1
2016-Dec-18 00:31N 30°19' E 121°44'0 0.0
2016-Dec-17 23:33N 30°19' E 121°44'0 0.0
2016-Dec-17 22:33N 30°19' E 121°44'0 0.1
2016-Dec-17 21:33N 30°19' E 121°44'0 0.0
2016-Dec-17 20:31N 30°19' E 121°44'0 0.0
2016-Dec-17 18:31N 30°19' E 121°44'0 0.0
2016-Dec-17 17:28N 30°19' E 121°44'  
2016-Dec-13 03:18N 35°03' E 139°39'811.1
2016-Dec-13 02:33N 35°09' E 139°45'1110.9
2016-Dec-13 01:33N 35°20' E 139°42'1110.7
2016-Dec-13 00:33N 35°29' E 139°50'10 0.4
2016-Dec-12 00:22N 35°31' E 140°02'1 1.8
2016-Dec-11 23:34N 35°31' E 140°00'1 0.9
2016-Dec-11 22:31N 35°30' E 139°60'0 0.0
2016-Dec-11 21:31N 35°30' E 139°60'0 0.0
2016-Dec-11 20:16N 35°30' E 139°60'0 0.0
2016-Dec-11 19:33N 35°30' E 139°60'0 0.0
2016-Dec-11 18:33N 35°30' E 139°60'0 0.0
2016-Dec-11 17:27N 35°30' E 139°60'0 0.0
2016-Dec-11 16:06N 35°30' E 139°60'0 0.2
2016-Dec-11 15:33N 35°30' E 139°60'3 2.8
2016-Dec-11 14:33N 35°30' E 139°56'1110.9
2016-Dec-11 13:33N 35°23' E 139°46'1110.6
2016-Dec-11 12:33N 35°13' E 139°47'1010.0
2016-Dec-11 11:31N 35°04' E 139°41'  

Dump ship's entire track history